sensor_id;sensor_type;location;lat;lon;timestamp;temperature;humidity
53653;DHT22;39553;52.954;5.932;2022-09-29T00:02:16;6.20;99.90
53653;DHT22;39553;52.954;5.932;2022-09-29T00:04:42;6.20;99.90
53653;DHT22;39553;52.954;5.932;2022-09-29T00:07:08;6.10;99.90
53653;DHT22;39553;52.954;5.932;2022-09-29T00:09:34;6.40;99.90
53653;DHT22;39553;52.954;5.932;2022-09-29T00:12:00;6.20;99.90
53653;DHT22;39553;52.954;5.932;2022-09-29T00:14:25;6.20;99.90
53653;DHT22;39553;52.954;5.932;2022-09-29T00:16:51;6.00;99.90
53653;DHT22;39553;52.954;5.932;2022-09-29T00:19:18;6.30;99.90
53653;DHT22;39553;52.954;5.932;2022-09-29T00:21:44;6.20;99.90
53653;DHT22;39553;52.954;5.932;2022-09-29T00:24:10;6.30;99.90
53653;DHT22;39553;52.954;5.932;2022-09-29T00:26:36;6.30;99.90
53653;DHT22;39553;52.954;5.932;2022-09-29T00:29:02;6.10;99.90
53653;DHT22;39553;52.954;5.932;2022-09-29T00:31:30;6.30;99.90
53653;DHT22;39553;52.954;5.932;2022-09-29T00:33:56;6.20;99.90
53653;DHT22;39553;52.954;5.932;2022-09-29T00:36:23;6.20;99.90
53653;DHT22;39553;52.954;5.932;2022-09-29T00:38:50;6.10;99.90
53653;DHT22;39553;52.954;5.932;2022-09-29T00:41:23;6.00;99.90
53653;DHT22;39553;52.954;5.932;2022-09-29T00:47:00;5.90;99.90
53653;DHT22;39553;52.954;5.932;2022-09-29T00:54:35;6.00;99.90
53653;DHT22;39553;52.954;5.932;2022-09-29T00:57:03;5.90;99.90
53653;DHT22;39553;52.954;5.932;2022-09-29T00:59:39;5.90;99.90
53653;DHT22;39553;52.954;5.932;2022-09-29T01:02:06;5.90;99.90
53653;DHT22;39553;52.954;5.932;2022-09-29T01:04:33;6.00;99.90
53653;DHT22;39553;52.954;5.932;2022-09-29T01:07:00;5.90;99.90
53653;DHT22;39553;52.954;5.932;2022-09-29T01:09:32;5.80;99.90
53653;DHT22;39553;52.954;5.932;2022-09-29T01:12:00;5.70;99.90
53653;DHT22;39553;52.954;5.932;2022-09-29T01:14:28;5.70;99.90
53653;DHT22;39553;52.954;5.932;2022-09-29T01:16:54;5.90;99.90
53653;DHT22;39553;52.954;5.932;2022-09-29T01:25:01;5.90;99.90
53653;DHT22;39553;52.954;5.932;2022-09-29T01:28:25;5.80;99.90
53653;DHT22;39553;52.954;5.932;2022-09-29T01:30:50;5.80;99.90
53653;DHT22;39553;52.954;5.932;2022-09-29T01:33:45;5.70;99.90
53653;DHT22;39553;52.954;5.932;2022-09-29T01:41:29;5.50;99.90
53653;DHT22;39553;52.954;5.932;2022-09-29T01:44:23;5.40;99.90
53653;DHT22;39553;52.954;5.932;2022-09-29T01:47:08;5.60;99.90
53653;DHT22;39553;52.954;5.932;2022-09-29T01:49:40;5.30;99.90
53653;DHT22;39553;52.954;5.932;2022-09-29T01:54:46;6.00;99.90
53653;DHT22;39553;52.954;5.932;2022-09-29T02:00:20;5.30;99.90
53653;DHT22;39553;52.954;5.932;2022-09-29T02:05:11;5.30;99.90
53653;DHT22;39553;52.954;5.932;2022-09-29T02:07:43;5.20;99.90
53653;DHT22;39553;52.954;5.932;2022-09-29T02:10:17;5.50;99.90
53653;DHT22;39553;52.954;5.932;2022-09-29T02:12:44;5.50;99.90
53653;DHT22;39553;52.954;5.932;2022-09-29T02:15:18;5.40;99.90
53653;DHT22;39553;52.954;5.932;2022-09-29T02:17:47;5.60;99.90
53653;DHT22;39553;52.954;5.932;2022-09-29T02:20:15;5.60;99.90
53653;DHT22;39553;52.954;5.932;2022-09-29T02:22:41;5.40;99.90
53653;DHT22;39553;52.954;5.932;2022-09-29T02:25:10;5.60;99.90
53653;DHT22;39553;52.954;5.932;2022-09-29T02:27:36;5.40;99.90
53653;DHT22;39553;52.954;5.932;2022-09-29T02:30:03;5.60;99.90
53653;DHT22;39553;52.954;5.932;2022-09-29T02:32:32;5.60;99.90
53653;DHT22;39553;52.954;5.932;2022-09-29T02:34:59;5.40;99.90
53653;DHT22;39553;52.954;5.932;2022-09-29T02:40:41;5.40;99.90
53653;DHT22;39553;52.954;5.932;2022-09-29T02:46:34;5.80;99.90
53653;DHT22;39553;52.954;5.932;2022-09-29T02:48:58;5.40;99.90
53653;DHT22;39553;52.954;5.932;2022-09-29T02:51:41;5.60;99.90
53653;DHT22;39553;52.954;5.932;2022-09-29T02:54:35;5.40;99.90
53653;DHT22;39553;52.954;5.932;2022-09-29T03:00:11;5.30;99.90
53653;DHT22;39553;52.954;5.932;2022-09-29T03:02:39;5.20;99.90
53653;DHT22;39553;52.954;5.932;2022-09-29T03:05:07;5.30;99.90
53653;DHT22;39553;52.954;5.932;2022-09-29T03:07:38;5.50;99.90
53653;DHT22;39553;52.954;5.932;2022-09-29T03:10:06;5.20;99.90
53653;DHT22;39553;52.954;5.932;2022-09-29T03:12:33;5.40;99.90
53653;DHT22;39553;52.954;5.932;2022-09-29T03:14:59;5.30;99.90
53653;DHT22;39553;52.954;5.932;2022-09-29T03:17:24;5.10;99.90
53653;DHT22;39553;52.954;5.932;2022-09-29T03:19:50;5.80;99.90
53653;DHT22;39553;52.954;5.932;2022-09-29T03:22:16;5.10;99.90
53653;DHT22;39553;52.954;5.932;2022-09-29T03:24:43;5.40;99.90
53653;DHT22;39553;52.954;5.932;2022-09-29T03:27:09;5.20;99.90
53653;DHT22;39553;52.954;5.932;2022-09-29T03:29:36;5.50;99.90
53653;DHT22;39553;52.954;5.932;2022-09-29T03:32:03;5.20;99.90
53653;DHT22;39553;52.954;5.932;2022-09-29T03:34:29;5.50;99.90
53653;DHT22;39553;52.954;5.932;2022-09-29T03:36:54;5.50;99.90
53653;DHT22;39553;52.954;5.932;2022-09-29T03:39:21;5.40;99.90
53653;DHT22;39553;52.954;5.932;2022-09-29T03:41:47;5.40;99.90
53653;DHT22;39553;52.954;5.932;2022-09-29T03:44:12;5.40;99.90
53653;DHT22;39553;52.954;5.932;2022-09-29T03:46:38;5.10;99.90
53653;DHT22;39553;52.954;5.932;2022-09-29T03:49:04;5.30;99.90
53653;DHT22;39553;52.954;5.932;2022-09-29T03:51:30;5.20;99.90
53653;DHT22;39553;52.954;5.932;2022-09-29T03:53:55;5.30;99.90
53653;DHT22;39553;52.954;5.932;2022-09-29T03:56:21;5.20;99.90
53653;DHT22;39553;52.954;5.932;2022-09-29T03:58:47;5.30;99.90
53653;DHT22;39553;52.954;5.932;2022-09-29T04:01:13;5.20;99.90
53653;DHT22;39553;52.954;5.932;2022-09-29T04:03:38;5.30;99.90
53653;DHT22;39553;52.954;5.932;2022-09-29T04:06:04;5.00;99.90
53653;DHT22;39553;52.954;5.932;2022-09-29T04:08:30;5.20;99.90
53653;DHT22;39553;52.954;5.932;2022-09-29T04:10:56;5.00;99.90
53653;DHT22;39553;52.954;5.932;2022-09-29T04:13:21;5.30;99.90
53653;DHT22;39553;52.954;5.932;2022-09-29T04:15:48;5.30;99.90
53653;DHT22;39553;52.954;5.932;2022-09-29T04:18:13;5.60;99.90
53653;DHT22;39553;52.954;5.932;2022-09-29T04:20:39;5.20;99.90
53653;DHT22;39553;52.954;5.932;2022-09-29T04:23:05;5.20;99.90
53653;DHT22;39553;52.954;5.932;2022-09-29T04:25:32;5.10;99.90
53653;DHT22;39553;52.954;5.932;2022-09-29T04:27:58;5.00;99.90
53653;DHT22;39553;52.954;5.932;2022-09-29T04:30:23;5.00;99.90
53653;DHT22;39553;52.954;5.932;2022-09-29T04:32:49;5.10;99.90
53653;DHT22;39553;52.954;5.932;2022-09-29T04:35:15;5.20;99.90
53653;DHT22;39553;52.954;5.932;2022-09-29T04:37:41;5.20;99.90
53653;DHT22;39553;52.954;5.932;2022-09-29T04:40:07;5.10;99.90
53653;DHT22;39553;52.954;5.932;2022-09-29T04:42:33;4.80;99.90
53653;DHT22;39553;52.954;5.932;2022-09-29T04:44:59;4.90;99.90
53653;DHT22;39553;52.954;5.932;2022-09-29T04:47:24;4.80;99.90
53653;DHT22;39553;52.954;5.932;2022-09-29T04:49:50;5.00;99.90
53653;DHT22;39553;52.954;5.932;2022-09-29T04:52:16;4.80;99.90
53653;DHT22;39553;52.954;5.932;2022-09-29T04:54:41;4.80;99.90
53653;DHT22;39553;52.954;5.932;2022-09-29T04:57:08;5.00;99.90
53653;DHT22;39553;52.954;5.932;2022-09-29T04:59:35;4.90;99.90
53653;DHT22;39553;52.954;5.932;2022-09-29T05:02:00;4.90;99.90
53653;DHT22;39553;52.954;5.932;2022-09-29T05:04:26;4.70;99.90
53653;DHT22;39553;52.954;5.932;2022-09-29T05:06:52;4.80;99.90
53653;DHT22;39553;52.954;5.932;2022-09-29T05:09:17;4.90;99.90
53653;DHT22;39553;52.954;5.932;2022-09-29T05:11:43;4.70;99.90
53653;DHT22;39553;52.954;5.932;2022-09-29T05:14:10;4.70;99.90
53653;DHT22;39553;52.954;5.932;2022-09-29T05:16:35;4.70;99.90
53653;DHT22;39553;52.954;5.932;2022-09-29T05:19:01;5.10;99.90
53653;DHT22;39553;52.954;5.932;2022-09-29T05:21:27;4.80;99.90
53653;DHT22;39553;52.954;5.932;2022-09-29T05:23:54;4.90;99.90
53653;DHT22;39553;52.954;5.932;2022-09-29T05:26:19;4.90;99.90
53653;DHT22;39553;52.954;5.932;2022-09-29T05:28:46;5.00;99.90
53653;DHT22;39553;52.954;5.932;2022-09-29T05:31:13;4.70;99.90
53653;DHT22;39553;52.954;5.932;2022-09-29T05:33:40;4.60;99.90
53653;DHT22;39553;52.954;5.932;2022-09-29T05:36:07;4.50;99.90
53653;DHT22;39553;52.954;5.932;2022-09-29T05:38:34;4.60;99.90
53653;DHT22;39553;52.954;5.932;2022-09-29T05:41:09;4.70;99.90
53653;DHT22;39553;52.954;5.932;2022-09-29T05:43:36;4.50;99.90
53653;DHT22;39553;52.954;5.932;2022-09-29T05:46:04;4.50;99.90
53653;DHT22;39553;52.954;5.932;2022-09-29T05:48:30;4.60;99.90
53653;DHT22;39553;52.954;5.932;2022-09-29T05:51:05;4.60;99.90
53653;DHT22;39553;52.954;5.932;2022-09-29T05:53:31;4.30;99.90
53653;DHT22;39553;52.954;5.932;2022-09-29T05:55:57;4.70;99.90
53653;DHT22;39553;52.954;5.932;2022-09-29T05:58:22;4.50;99.90
53653;DHT22;39553;52.954;5.932;2022-09-29T06:00:48;4.70;99.90
53653;DHT22;39553;52.954;5.932;2022-09-29T06:03:14;4.70;99.90
53653;DHT22;39553;52.954;5.932;2022-09-29T06:05:40;4.80;99.90
53653;DHT22;39553;52.954;5.932;2022-09-29T06:08:05;4.90;99.90
53653;DHT22;39553;52.954;5.932;2022-09-29T06:10:32;4.90;99.90
53653;DHT22;39553;52.954;5.932;2022-09-29T06:12:58;5.30;99.90
53653;DHT22;39553;52.954;5.932;2022-09-29T06:15:24;5.10;99.90
53653;DHT22;39553;52.954;5.932;2022-09-29T06:17:59;4.90;99.90
53653;DHT22;39553;52.954;5.932;2022-09-29T06:20:28;5.30;99.90
53653;DHT22;39553;52.954;5.932;2022-09-29T06:22:55;5.30;99.90
53653;DHT22;39553;52.954;5.932;2022-09-29T06:25:21;6.30;99.90
53653;DHT22;39553;52.954;5.932;2022-09-29T06:27:47;5.40;99.90
53653;DHT22;39553;52.954;5.932;2022-09-29T06:30:14;5.30;99.90
53653;DHT22;39553;52.954;5.932;2022-09-29T06:32:40;5.30;99.90
53653;DHT22;39553;52.954;5.932;2022-09-29T06:35:06;6.10;99.90
53653;DHT22;39553;52.954;5.932;2022-09-29T06:37:51;5.50;99.90
53653;DHT22;39553;52.954;5.932;2022-09-29T06:40:18;5.60;99.90
53653;DHT22;39553;52.954;5.932;2022-09-29T06:42:47;5.90;99.90
53653;DHT22;39553;52.954;5.932;2022-09-29T06:45:14;5.70;99.90
53653;DHT22;39553;52.954;5.932;2022-09-29T06:47:40;6.00;99.90
53653;DHT22;39553;52.954;5.932;2022-09-29T06:50:06;6.10;99.90
53653;DHT22;39553;52.954;5.932;2022-09-29T06:52:32;6.30;99.90
53653;DHT22;39553;52.954;5.932;2022-09-29T06:54:57;6.40;99.90
53653;DHT22;39553;52.954;5.932;2022-09-29T06:57:23;6.50;99.90
53653;DHT22;39553;52.954;5.932;2022-09-29T06:59:49;6.40;99.90
53653;DHT22;39553;52.954;5.932;2022-09-29T07:02:15;6.40;99.90
53653;DHT22;39553;52.954;5.932;2022-09-29T07:04:41;6.60;99.90
53653;DHT22;39553;52.954;5.932;2022-09-29T07:07:06;6.50;99.90
53653;DHT22;39553;52.954;5.932;2022-09-29T07:09:32;6.50;99.90
53653;DHT22;39553;52.954;5.932;2022-09-29T07:11:58;6.50;99.90
53653;DHT22;39553;52.954;5.932;2022-09-29T07:14:24;6.90;99.90
53653;DHT22;39553;52.954;5.932;2022-09-29T07:16:50;7.40;99.90
53653;DHT22;39553;52.954;5.932;2022-09-29T07:19:17;6.70;99.90
53653;DHT22;39553;52.954;5.932;2022-09-29T07:21:44;6.80;99.90
53653;DHT22;39553;52.954;5.932;2022-09-29T07:24:10;6.70;99.90
53653;DHT22;39553;52.954;5.932;2022-09-29T07:26:36;6.90;99.90
53653;DHT22;39553;52.954;5.932;2022-09-29T07:29:02;6.80;99.90
53653;DHT22;39553;52.954;5.932;2022-09-29T07:31:28;6.90;99.90
53653;DHT22;39553;52.954;5.932;2022-09-29T07:33:55;7.00;99.90
53653;DHT22;39553;52.954;5.932;2022-09-29T07:36:22;7.10;99.90
53653;DHT22;39553;52.954;5.932;2022-09-29T07:38:49;7.10;99.90
53653;DHT22;39553;52.954;5.932;2022-09-29T07:41:16;7.20;99.90
53653;DHT22;39553;52.954;5.932;2022-09-29T07:43:42;7.30;99.90
53653;DHT22;39553;52.954;5.932;2022-09-29T07:46:08;8.10;99.90
53653;DHT22;39553;52.954;5.932;2022-09-29T07:48:35;7.50;99.90
53653;DHT22;39553;52.954;5.932;2022-09-29T07:51:11;7.90;99.90
53653;DHT22;39553;52.954;5.932;2022-09-29T07:53:37;7.80;99.90
53653;DHT22;39553;52.954;5.932;2022-09-29T07:56:05;7.90;99.90
53653;DHT22;39553;52.954;5.932;2022-09-29T07:58:32;8.00;99.90
53653;DHT22;39553;52.954;5.932;2022-09-29T08:00:58;8.10;99.90
53653;DHT22;39553;52.954;5.932;2022-09-29T08:03:24;8.10;99.90
53653;DHT22;39553;52.954;5.932;2022-09-29T08:05:52;8.20;99.90
53653;DHT22;39553;52.954;5.932;2022-09-29T08:08:18;8.40;99.90
53653;DHT22;39553;52.954;5.932;2022-09-29T08:10:44;8.60;99.90
53653;DHT22;39553;52.954;5.932;2022-09-29T08:13:09;8.70;99.90
53653;DHT22;39553;52.954;5.932;2022-09-29T08:15:35;8.80;99.90
53653;DHT22;39553;52.954;5.932;2022-09-29T08:18:01;9.00;99.90
53653;DHT22;39553;52.954;5.932;2022-09-29T08:20:27;9.20;99.90
53653;DHT22;39553;52.954;5.932;2022-09-29T08:22:52;9.30;99.90
53653;DHT22;39553;52.954;5.932;2022-09-29T08:25:21;9.40;99.90
53653;DHT22;39553;52.954;5.932;2022-09-29T08:27:49;9.60;99.90
53653;DHT22;39553;52.954;5.932;2022-09-29T08:30:15;9.60;99.90
53653;DHT22;39553;52.954;5.932;2022-09-29T08:32:40;9.80;99.90
53653;DHT22;39553;52.954;5.932;2022-09-29T08:35:07;9.90;99.90
53653;DHT22;39553;52.954;5.932;2022-09-29T08:37:33;10.10;99.90
53653;DHT22;39553;52.954;5.932;2022-09-29T08:39:59;10.60;99.90
53653;DHT22;39553;52.954;5.932;2022-09-29T08:45:12;12.40;99.90
53653;DHT22;39553;52.954;5.932;2022-09-29T08:47:45;13.40;99.90
53653;DHT22;39553;52.954;5.932;2022-09-29T08:50:33;14.20;99.90
53653;DHT22;39553;52.954;5.932;2022-09-29T08:53:07;14.70;99.90
53653;DHT22;39553;52.954;5.932;2022-09-29T08:55:43;15.20;99.90
53653;DHT22;39553;52.954;5.932;2022-09-29T08:58:12;15.40;99.90
53653;DHT22;39553;52.954;5.932;2022-09-29T09:03:48;16.00;99.90
53653;DHT22;39553;52.954;5.932;2022-09-29T09:06:25;16.40;99.90
53653;DHT22;39553;52.954;5.932;2022-09-29T09:12:03;16.90;99.90
53653;DHT22;39553;52.954;5.932;2022-09-29T09:17:50;17.50;99.90
53653;DHT22;39553;52.954;5.932;2022-09-29T09:20:39;17.80;99.90
53653;DHT22;39553;52.954;5.932;2022-09-29T09:23:21;17.90;99.90
53653;DHT22;39553;52.954;5.932;2022-09-29T09:25:56;17.60;99.90
53653;DHT22;39553;52.954;5.932;2022-09-29T09:28:33;17.40;99.90
53653;DHT22;39553;52.954;5.932;2022-09-29T09:33:51;17.80;99.90
53653;DHT22;39553;52.954;5.932;2022-09-29T09:36:34;18.00;99.90
53653;DHT22;39553;52.954;5.932;2022-09-29T09:39:17;18.00;99.90
53653;DHT22;39553;52.954;5.932;2022-09-29T09:41:46;18.20;99.90
53653;DHT22;39553;52.954;5.932;2022-09-29T09:44:29;18.60;99.90
53653;DHT22;39553;52.954;5.932;2022-09-29T09:47:11;18.80;99.90
53653;DHT22;39553;52.954;5.932;2022-09-29T09:49:44;18.90;99.90
53653;DHT22;39553;52.954;5.932;2022-09-29T09:53:11;18.80;99.90
53653;DHT22;39553;52.954;5.932;2022-09-29T09:55:15;18.70;99.90
53653;DHT22;39553;52.954;5.932;2022-09-29T10:03:03;19.20;99.90
53653;DHT22;39553;52.954;5.932;2022-09-29T10:07:58;18.80;99.90
53653;DHT22;39553;52.954;5.932;2022-09-29T10:10:26;18.90;99.90
53653;DHT22;39553;52.954;5.932;2022-09-29T10:13:14;19.10;99.90
53653;DHT22;39553;52.954;5.932;2022-09-29T10:18:40;19.70;99.90
53653;DHT22;39553;52.954;5.932;2022-09-29T10:23:52;20.00;99.90
53653;DHT22;39553;52.954;5.932;2022-09-29T10:26:22;19.80;99.90
53653;DHT22;39553;52.954;5.932;2022-09-29T10:28:57;19.90;99.90
53653;DHT22;39553;52.954;5.932;2022-09-29T10:31:25;20.00;99.90
53653;DHT22;39553;52.954;5.932;2022-09-29T10:34:14;19.90;99.90
53653;DHT22;39553;52.954;5.932;2022-09-29T10:39:41;19.00;99.90
53653;DHT22;39553;52.954;5.932;2022-09-29T10:42:24;18.20;99.90
53653;DHT22;39553;52.954;5.932;2022-09-29T10:45:16;17.50;99.90
53653;DHT22;39553;52.954;5.932;2022-09-29T10:47:41;16.90;99.90
53653;DHT22;39553;52.954;5.932;2022-09-29T10:50:21;16.10;99.90
53653;DHT22;39553;52.954;5.932;2022-09-29T10:55:23;15.30;99.90
53653;DHT22;39553;52.954;5.932;2022-09-29T10:57:50;14.90;99.90
53653;DHT22;39553;52.954;5.932;2022-09-29T11:00:43;14.80;99.90
53653;DHT22;39553;52.954;5.932;2022-09-29T11:03:24;14.70;99.90
53653;DHT22;39553;52.954;5.932;2022-09-29T11:05:53;14.70;99.90
53653;DHT22;39553;52.954;5.932;2022-09-29T11:08:20;14.60;99.90
53653;DHT22;39553;52.954;5.932;2022-09-29T11:16:11;14.10;99.90
53653;DHT22;39553;52.954;5.932;2022-09-29T11:18:40;14.10;99.90
53653;DHT22;39553;52.954;5.932;2022-09-29T11:21:34;14.10;99.90
53653;DHT22;39553;52.954;5.932;2022-09-29T11:24:05;14.20;99.90
53653;DHT22;39553;52.954;5.932;2022-09-29T11:26:45;14.20;99.90
53653;DHT22;39553;52.954;5.932;2022-09-29T11:38:08;14.10;99.90
53653;DHT22;39553;52.954;5.932;2022-09-29T11:46:14;14.20;99.90
53653;DHT22;39553;52.954;5.932;2022-09-29T11:49:14;14.30;99.90
53653;DHT22;39553;52.954;5.932;2022-09-29T11:54:54;14.40;99.90
53653;DHT22;39553;52.954;5.932;2022-09-29T12:00:20;14.70;99.90
53653;DHT22;39553;52.954;5.932;2022-09-29T12:16:54;15.20;99.90
53653;DHT22;39553;52.954;5.932;2022-09-29T12:19:25;15.30;99.90
53653;DHT22;39553;52.954;5.932;2022-09-29T12:21:55;15.40;99.90
53653;DHT22;39553;52.954;5.932;2022-09-29T12:24:37;15.40;99.90
53653;DHT22;39553;52.954;5.932;2022-09-29T12:27:28;15.50;99.90
53653;DHT22;39553;52.954;5.932;2022-09-29T12:30:23;15.50;99.90
53653;DHT22;39553;52.954;5.932;2022-09-29T12:41:10;15.00;99.90
53653;DHT22;39553;52.954;5.932;2022-09-29T12:51:48;15.20;99.90
53653;DHT22;39553;52.954;5.932;2022-09-29T12:54:31;15.20;99.90
53653;DHT22;39553;52.954;5.932;2022-09-29T12:57:13;15.20;99.90
53653;DHT22;39553;52.954;5.932;2022-09-29T13:10:46;15.30;99.90
53653;DHT22;39553;52.954;5.932;2022-09-29T13:16:23;15.50;99.90
53653;DHT22;39553;52.954;5.932;2022-09-29T13:30:20;15.50;99.90
53653;DHT22;39553;52.954;5.932;2022-09-29T13:33:10;15.30;99.90
53653;DHT22;39553;52.954;5.932;2022-09-29T13:35:43;15.10;99.90
53653;DHT22;39553;52.954;5.932;2022-09-29T13:38:28;14.90;99.90
53653;DHT22;39553;52.954;5.932;2022-09-29T13:51:39;14.60;99.90
53653;DHT22;39553;52.954;5.932;2022-09-29T13:54:35;14.50;99.90
53653;DHT22;39553;52.954;5.932;2022-09-29T14:02:34;14.70;99.90
53653;DHT22;39553;52.954;5.932;2022-09-29T14:05:03;14.70;99.90
53653;DHT22;39553;52.954;5.932;2022-09-29T14:13:31;14.70;99.90
53653;DHT22;39553;52.954;5.932;2022-09-29T14:18:47;14.60;99.90
53653;DHT22;39553;52.954;5.932;2022-09-29T14:33:11;14.30;99.90
53653;DHT22;39553;52.954;5.932;2022-09-29T15:03:44;14.30;99.90
53653;DHT22;39553;52.954;5.932;2022-09-29T15:06:15;14.30;99.90
53653;DHT22;39553;52.954;5.932;2022-09-29T15:08:43;14.30;99.90
53653;DHT22;39553;52.954;5.932;2022-09-29T15:13:58;14.30;99.90
53653;DHT22;39553;52.954;5.932;2022-09-29T15:16:44;14.30;99.90
53653;DHT22;39553;52.954;5.932;2022-09-29T15:19:27;14.30;99.90
53653;DHT22;39553;52.954;5.932;2022-09-29T15:22:27;14.40;99.90
53653;DHT22;39553;52.954;5.932;2022-09-29T15:27:31;14.30;99.90
53653;DHT22;39553;52.954;5.932;2022-09-29T15:29:58;14.20;99.90
53653;DHT22;39553;52.954;5.932;2022-09-29T15:32:30;14.10;99.90
53653;DHT22;39553;52.954;5.932;2022-09-29T15:35:05;14.00;99.90
53653;DHT22;39553;52.954;5.932;2022-09-29T15:40:36;13.80;99.90
53653;DHT22;39553;52.954;5.932;2022-09-29T15:43:02;13.70;99.90
53653;DHT22;39553;52.954;5.932;2022-09-29T15:45:28;13.60;99.90
53653;DHT22;39553;52.954;5.932;2022-09-29T15:48:01;13.40;99.90
53653;DHT22;39553;52.954;5.932;2022-09-29T15:50:31;13.40;99.90
53653;DHT22;39553;52.954;5.932;2022-09-29T15:53:01;13.30;99.90
53653;DHT22;39553;52.954;5.932;2022-09-29T15:55:30;13.30;99.90
53653;DHT22;39553;52.954;5.932;2022-09-29T15:57:56;13.30;99.90
53653;DHT22;39553;52.954;5.932;2022-09-29T16:03:26;13.30;99.90
53653;DHT22;39553;52.954;5.932;2022-09-29T16:08:25;13.40;99.90
53653;DHT22;39553;52.954;5.932;2022-09-29T16:11:14;13.40;99.90
53653;DHT22;39553;52.954;5.932;2022-09-29T16:13:47;13.50;99.90
53653;DHT22;39553;52.954;5.932;2022-09-29T16:16:14;13.60;99.90
53653;DHT22;39553;52.954;5.932;2022-09-29T16:18:45;13.80;99.90
53653;DHT22;39553;52.954;5.932;2022-09-29T16:21:23;13.90;99.90
53653;DHT22;39553;52.954;5.932;2022-09-29T16:24:16;14.00;99.90
53653;DHT22;39553;52.954;5.932;2022-09-29T16:26:49;13.90;99.90
53653;DHT22;39553;52.954;5.932;2022-09-29T16:29:32;13.90;99.90
53653;DHT22;39553;52.954;5.932;2022-09-29T16:34:44;14.80;99.90
53653;DHT22;39553;52.954;5.932;2022-09-29T16:37:16;15.40;99.90
53653;DHT22;39553;52.954;5.932;2022-09-29T16:39:47;15.50;99.90
53653;DHT22;39553;52.954;5.932;2022-09-29T16:42:19;15.10;99.90
53653;DHT22;39553;52.954;5.932;2022-09-29T16:44:47;14.80;99.90
53653;DHT22;39553;52.954;5.932;2022-09-29T16:52:41;14.20;99.90
53653;DHT22;39553;52.954;5.932;2022-09-29T16:55:27;14.10;99.90
53653;DHT22;39553;52.954;5.932;2022-09-29T16:58:04;13.90;99.90
53653;DHT22;39553;52.954;5.932;2022-09-29T17:00:32;13.80;99.90
53653;DHT22;39553;52.954;5.932;2022-09-29T17:02:58;13.60;99.90
53653;DHT22;39553;52.954;5.932;2022-09-29T17:05:38;13.50;99.90
53653;DHT22;39553;52.954;5.932;2022-09-29T17:08:30;13.40;99.90
53653;DHT22;39553;52.954;5.932;2022-09-29T17:10:59;13.30;99.90
53653;DHT22;39553;52.954;5.932;2022-09-29T17:13:31;13.20;99.90
53653;DHT22;39553;52.954;5.932;2022-09-29T17:15:57;13.10;99.90
53653;DHT22;39553;52.954;5.932;2022-09-29T17:18:24;13.10;99.90
53653;DHT22;39553;52.954;5.932;2022-09-29T17:20:51;13.00;99.90
53653;DHT22;39553;52.954;5.932;2022-09-29T17:23:21;12.90;99.90
53653;DHT22;39553;52.954;5.932;2022-09-29T17:25:47;12.80;99.90
53653;DHT22;39553;52.954;5.932;2022-09-29T17:28:19;12.70;99.90
53653;DHT22;39553;52.954;5.932;2022-09-29T17:30:48;12.70;99.90
53653;DHT22;39553;52.954;5.932;2022-09-29T17:33:17;12.50;99.90
53653;DHT22;39553;52.954;5.932;2022-09-29T17:35:48;12.40;99.90
53653;DHT22;39553;52.954;5.932;2022-09-29T17:38:15;12.30;99.90
53653;DHT22;39553;52.954;5.932;2022-09-29T17:43:16;12.10;99.90
53653;DHT22;39553;52.954;5.932;2022-09-29T17:45:43;12.00;99.90
53653;DHT22;39553;52.954;5.932;2022-09-29T17:48:12;12.00;99.90
53653;DHT22;39553;52.954;5.932;2022-09-29T17:50:43;11.90;99.90
53653;DHT22;39553;52.954;5.932;2022-09-29T17:53:10;11.20;99.90
53653;DHT22;39553;52.954;5.932;2022-09-29T17:55:39;11.70;99.90
53653;DHT22;39553;52.954;5.932;2022-09-29T17:58:08;11.70;99.90
53653;DHT22;39553;52.954;5.932;2022-09-29T18:00:38;11.70;99.90
53653;DHT22;39553;52.954;5.932;2022-09-29T18:03:07;11.60;99.90
53653;DHT22;39553;52.954;5.932;2022-09-29T18:05:34;11.60;99.90
53653;DHT22;39553;52.954;5.932;2022-09-29T18:08:01;11.60;99.90
53653;DHT22;39553;52.954;5.932;2022-09-29T18:13:09;11.40;99.90
53653;DHT22;39553;52.954;5.932;2022-09-29T18:15:36;11.30;99.90
53653;DHT22;39553;52.954;5.932;2022-09-29T18:18:05;11.30;99.90
53653;DHT22;39553;52.954;5.932;2022-09-29T18:20:33;11.30;99.90
53653;DHT22;39553;52.954;5.932;2022-09-29T18:23:00;11.40;99.90
53653;DHT22;39553;52.954;5.932;2022-09-29T18:25:28;11.20;99.90
53653;DHT22;39553;52.954;5.932;2022-09-29T18:27:55;11.50;99.90
53653;DHT22;39553;52.954;5.932;2022-09-29T18:30:28;11.20;99.90
53653;DHT22;39553;52.954;5.932;2022-09-29T18:32:56;11.40;99.90
53653;DHT22;39553;52.954;5.932;2022-09-29T18:37:51;11.20;99.90
53653;DHT22;39553;52.954;5.932;2022-09-29T18:40:18;11.20;99.90
53653;DHT22;39553;52.954;5.932;2022-09-29T18:42:47;11.10;99.90
53653;DHT22;39553;52.954;5.932;2022-09-29T18:45:15;11.10;99.90
53653;DHT22;39553;52.954;5.932;2022-09-29T18:47:48;11.10;99.90
53653;DHT22;39553;52.954;5.932;2022-09-29T18:50:23;11.00;99.90
53653;DHT22;39553;52.954;5.932;2022-09-29T18:52:50;11.10;99.90
53653;DHT22;39553;52.954;5.932;2022-09-29T18:55:18;11.00;99.90
53653;DHT22;39553;52.954;5.932;2022-09-29T18:57:45;11.00;99.90
53653;DHT22;39553;52.954;5.932;2022-09-29T19:00:13;10.80;99.90
53653;DHT22;39553;52.954;5.932;2022-09-29T19:02:40;10.90;99.90
53653;DHT22;39553;52.954;5.932;2022-09-29T19:05:12;10.80;99.90
53653;DHT22;39553;52.954;5.932;2022-09-29T19:07:44;10.80;99.90
53653;DHT22;39553;52.954;5.932;2022-09-29T19:10:11;10.70;99.90
53653;DHT22;39553;52.954;5.932;2022-09-29T19:12:38;10.70;99.90
53653;DHT22;39553;52.954;5.932;2022-09-29T19:15:04;10.70;99.90
53653;DHT22;39553;52.954;5.932;2022-09-29T19:17:30;10.70;99.90
53653;DHT22;39553;52.954;5.932;2022-09-29T19:19:57;10.60;99.90
53653;DHT22;39553;52.954;5.932;2022-09-29T19:22:23;10.60;99.90
53653;DHT22;39553;52.954;5.932;2022-09-29T19:24:50;10.50;99.90
53653;DHT22;39553;52.954;5.932;2022-09-29T19:27:19;10.80;99.90
53653;DHT22;39553;52.954;5.932;2022-09-29T19:29:45;10.50;99.90
53653;DHT22;39553;52.954;5.932;2022-09-29T19:32:11;10.50;99.90
53653;DHT22;39553;52.954;5.932;2022-09-29T19:34:37;10.30;99.90
53653;DHT22;39553;52.954;5.932;2022-09-29T19:37:04;10.40;99.90
53653;DHT22;39553;52.954;5.932;2022-09-29T19:39:30;10.30;99.90
53653;DHT22;39553;52.954;5.932;2022-09-29T19:41:57;10.30;99.90
53653;DHT22;39553;52.954;5.932;2022-09-29T19:44:24;10.20;99.90
53653;DHT22;39553;52.954;5.932;2022-09-29T19:46:50;10.20;99.90
53653;DHT22;39553;52.954;5.932;2022-09-29T19:49:16;10.10;99.90
53653;DHT22;39553;52.954;5.932;2022-09-29T19:51:42;10.00;99.90
53653;DHT22;39553;52.954;5.932;2022-09-29T19:54:14;10.00;99.90
53653;DHT22;39553;52.954;5.932;2022-09-29T19:56:50;9.90;99.90
53653;DHT22;39553;52.954;5.932;2022-09-29T19:59:20;9.80;99.90
53653;DHT22;39553;52.954;5.932;2022-09-29T20:01:46;10.00;99.90
53653;DHT22;39553;52.954;5.932;2022-09-29T20:04:16;9.80;99.90